sensor_id;sensor_type;location;lat;lon;timestamp;pressure;altitude;pressure_sealevel;temperature;humidity
19023;BME280;35226;48.606;8.858;2023-02-12T00:02:14;98154.38;;;3.06;100.00
19023;BME280;35226;48.606;8.858;2023-02-12T00:04:40;98150.88;;;3.06;100.00
19023;BME280;35226;48.606;8.858;2023-02-12T00:07:05;98143.44;;;2.90;100.00
19023;BME280;35226;48.606;8.858;2023-02-12T00:09:31;98142.38;;;2.95;100.00
19023;BME280;35226;48.606;8.858;2023-02-12T00:11:56;98142.50;;;2.98;100.00
19023;BME280;35226;48.606;8.858;2023-02-12T00:14:22;98145.66;;;3.01;100.00
19023;BME280;35226;48.606;8.858;2023-02-12T00:16:47;98142.31;;;3.07;100.00
19023;BME280;35226;48.606;8.858;2023-02-12T00:19:13;98147.78;;;3.07;100.00
19023;BME280;35226;48.606;8.858;2023-02-12T00:21:38;98142.22;;;3.04;100.00
19023;BME280;35226;48.606;8.858;2023-02-12T00:24:04;98143.63;;;2.97;100.00
19023;BME280;35226;48.606;8.858;2023-02-12T00:26:30;98143.00;;;3.04;100.00
19023;BME280;35226;48.606;8.858;2023-02-12T00:28:55;98144.19;;;3.03;100.00
19023;BME280;35226;48.606;8.858;2023-02-12T00:31:26;98147.94;;;2.98;100.00
19023;BME280;35226;48.606;8.858;2023-02-12T00:33:55;98151.03;;;2.97;100.00
19023;BME280;35226;48.606;8.858;2023-02-12T00:36:23;98151.03;;;2.97;100.00
19023;BME280;35226;48.606;8.858;2023-02-12T00:38:54;98154.91;;;2.96;100.00
19023;BME280;35226;48.606;8.858;2023-02-12T00:41:21;98152.97;;;2.96;100.00
19023;BME280;35226;48.606;8.858;2023-02-12T00:43:47;98151.38;;;2.95;100.00
19023;BME280;35226;48.606;8.858;2023-02-12T00:46:13;98158.53;;;3.00;100.00
19023;BME280;35226;48.606;8.858;2023-02-12T00:48:39;98164.47;;;2.90;100.00
19023;BME280;35226;48.606;8.858;2023-02-12T00:51:05;98159.56;;;2.95;100.00
19023;BME280;35226;48.606;8.858;2023-02-12T00:53:32;98159.22;;;2.97;100.00
19023;BME280;35226;48.606;8.858;2023-02-12T00:55:58;98159.66;;;2.99;100.00
19023;BME280;35226;48.606;8.858;2023-02-12T00:58:23;98150.16;;;2.93;100.00
19023;BME280;35226;48.606;8.858;2023-02-12T01:00:49;98166.53;;;2.93;100.00
19023;BME280;35226;48.606;8.858;2023-02-12T01:03:15;98169.94;;;2.90;100.00
19023;BME280;35226;48.606;8.858;2023-02-12T01:05:41;98166.75;;;2.88;100.00
19023;BME280;35226;48.606;8.858;2023-02-12T01:08:07;98169.84;;;2.86;100.00
19023;BME280;35226;48.606;8.858;2023-02-12T01:10:35;98170.06;;;2.93;100.00
19023;BME280;35226;48.606;8.858;2023-02-12T01:13:01;98168.00;;;2.90;100.00
19023;BME280;35226;48.606;8.858;2023-02-12T01:15:27;98169.94;;;2.90;100.00
19023;BME280;35226;48.606;8.858;2023-02-12T01:17:53;98167.44;;;2.85;100.00
19023;BME280;35226;48.606;8.858;2023-02-12T01:20:21;98165.97;;;2.87;100.00
19023;BME280;35226;48.606;8.858;2023-02-12T01:22:47;98166.66;;;2.84;100.00
19023;BME280;35226;48.606;8.858;2023-02-12T01:25:13;98154.97;;;2.84;100.00
19023;BME280;35226;48.606;8.858;2023-02-12T01:27:39;98155.66;;;2.81;100.00
19023;BME280;35226;48.606;8.858;2023-02-12T01:30:06;98159.53;;;2.80;100.00
19023;BME280;35226;48.606;8.858;2023-02-12T01:32:33;98158.38;;;2.81;100.00
19023;BME280;35226;48.606;8.858;2023-02-12T01:34:59;98158.28;;;2.77;100.00
19023;BME280;35226;48.606;8.858;2023-02-12T01:37:24;98165.66;;;2.77;100.00
19023;BME280;35226;48.606;8.858;2023-02-12T01:39:51;98157.28;;;2.70;100.00
19023;BME280;35226;48.606;8.858;2023-02-12T01:42:17;98157.81;;;2.75;100.00
19023;BME280;35226;48.606;8.858;2023-02-12T01:45:41;98155.88;;;2.76;100.00
19023;BME280;35226;48.606;8.858;2023-02-12T01:48:01;98158.28;;;2.77;100.00
19023;BME280;35226;48.606;8.858;2023-02-12T01:50:27;98151.66;;;2.78;100.00
19023;BME280;35226;48.606;8.858;2023-02-12T01:52:55;98150.41;;;2.76;100.00
19023;BME280;35226;48.606;8.858;2023-02-12T01:55:22;98156.00;;;2.79;100.00
19023;BME280;35226;48.606;8.858;2023-02-12T01:57:49;98155.19;;;2.79;100.00
19023;BME280;35226;48.606;8.858;2023-02-12T02:00:18;98159.53;;;2.80;100.00
19023;BME280;35226;48.606;8.858;2023-02-12T02:02:48;98152.47;;;2.79;100.00
19023;BME280;35226;48.606;8.858;2023-02-12T02:05:22;98145.06;;;2.79;100.00
19023;BME280;35226;48.606;8.858;2023-02-12T02:07:49;98153.94;;;2.76;100.00
19023;BME280;35226;48.606;8.858;2023-02-12T02:10:14;98156.34;;;2.78;100.00
19023;BME280;35226;48.606;8.858;2023-02-12T02:12:40;98152.81;;;2.77;100.00
19023;BME280;35226;48.606;8.858;2023-02-12T02:15:27;98152.47;;;2.79;100.00
19023;BME280;35226;48.606;8.858;2023-02-12T02:18:06;98146.91;;;2.75;100.00
19023;BME280;35226;48.606;8.858;2023-02-12T02:21:54;98143.47;;;2.78;100.00
19023;BME280;35226;48.606;8.858;2023-02-12T02:32:00;98131.44;;;2.79;100.00
19023;BME280;35226;48.606;8.858;2023-02-12T02:34:46;98132.56;;;2.78;100.00
19023;BME280;35226;48.606;8.858;2023-02-12T02:40:19;98127.28;;;2.85;100.00
19023;BME280;35226;48.606;8.858;2023-02-12T02:43:09;98125.72;;;2.84;100.00
19023;BME280;35226;48.606;8.858;2023-02-12T02:45:46;98130.75;;;2.82;100.00
19023;BME280;35226;48.606;8.858;2023-02-12T02:49:03;98133.47;;;2.82;100.00
19023;BME280;35226;48.606;8.858;2023-02-12T02:51:34;98136.63;;;2.84;100.00
19023;BME280;35226;48.606;8.858;2023-02-12T02:54:05;98133.13;;;2.84;100.00
19023;BME280;35226;48.606;8.858;2023-02-12T02:56:36;98135.84;;;2.84;100.00
19023;BME280;35226;48.606;8.858;2023-02-12T02:59:09;98129.59;;;2.83;100.00
19023;BME280;35226;48.606;8.858;2023-02-12T03:01:42;98134.59;;;2.81;100.00
19023;BME280;35226;48.606;8.858;2023-02-12T03:04:17;98126.75;;;2.80;100.00
19023;BME280;35226;48.606;8.858;2023-02-12T03:06:52;98129.19;;;2.69;100.00
19023;BME280;35226;48.606;8.858;2023-02-12T03:09:29;98126.16;;;2.58;100.00
19023;BME280;35226;48.606;8.858;2023-02-12T03:12:01;98121.63;;;2.63;100.00
19023;BME280;35226;48.606;8.858;2023-02-12T03:14:31;98124.22;;;2.59;100.00
19023;BME280;35226;48.606;8.858;2023-02-12T03:17:02;98131.28;;;2.60;100.00
19023;BME280;35226;48.606;8.858;2023-02-12T03:19:34;98127.09;;;2.50;100.00
19023;BME280;35226;48.606;8.858;2023-02-12T03:22:01;98136.28;;;2.58;100.00
19023;BME280;35226;48.606;8.858;2023-02-12T03:24:34;98136.63;;;2.56;100.00
19023;BME280;35226;48.606;8.858;2023-02-12T03:27:08;98134.94;;;2.52;100.00
19023;BME280;35226;48.606;8.858;2023-02-12T03:29:35;98123.13;;;2.48;100.00
19023;BME280;35226;48.606;8.858;2023-02-12T03:35:01;98136.69;;;2.44;100.00
19023;BME280;35226;48.606;8.858;2023-02-12T03:50:56;98144.94;;;2.48;100.00
19023;BME280;35226;48.606;8.858;2023-02-12T03:53:27;98151.78;;;2.54;100.00
19023;BME280;35226;48.606;8.858;2023-02-12T03:55:58;98150.19;;;2.53;100.00
19023;BME280;35226;48.606;8.858;2023-02-12T03:58:27;98152.91;;;2.53;100.00
19023;BME280;35226;48.606;8.858;2023-02-12T04:00:53;98147.34;;;2.49;100.00
19023;BME280;35226;48.606;8.858;2023-02-12T04:03:19;98146.19;;;2.50;100.00
19023;BME280;35226;48.606;8.858;2023-02-12T04:05:45;98145.41;;;2.50;100.00
19023;BME280;35226;48.606;8.858;2023-02-12T04:08:11;98142.34;;;2.51;100.00
19023;BME280;35226;48.606;8.858;2023-02-12T04:11:07;98150.41;;;2.48;100.00
19023;BME280;35226;48.606;8.858;2023-02-12T04:22:44;98154.19;;;2.43;100.00
19023;BME280;35226;48.606;8.858;2023-02-12T04:25:15;98152.34;;;2.47;100.00
19023;BME280;35226;48.606;8.858;2023-02-12T04:28:06;98161.66;;;2.46;100.00
19023;BME280;35226;48.606;8.858;2023-02-12T04:33:15;98165.63;;;2.49;100.00
19023;BME280;35226;48.606;8.858;2023-02-12T04:35:54;98160.19;;;2.49;100.00
19023;BME280;35226;48.606;8.858;2023-02-12T04:38:30;98163.25;;;2.47;100.00
19023;BME280;35226;48.606;8.858;2023-02-12T04:40:59;98156.19;;;2.46;100.00
19023;BME280;35226;48.606;8.858;2023-02-12T04:43:26;98161.31;;;2.48;100.00
19023;BME280;35226;48.606;8.858;2023-02-12T04:45:52;98166.44;;;2.49;100.00
19023;BME280;35226;48.606;8.858;2023-02-12T04:48:17;98170.75;;;2.50;100.00
19023;BME280;35226;48.606;8.858;2023-02-12T04:50:44;98168.81;;;2.51;100.00
19023;BME280;35226;48.606;8.858;2023-02-12T04:53:11;98168.81;;;2.51;100.00
19023;BME280;35226;48.606;8.858;2023-02-12T04:55:36;98175.88;;;2.52;100.00
19023;BME280;35226;48.606;8.858;2023-02-12T04:58:02;98168.81;;;2.51;100.00
19023;BME280;35226;48.606;8.858;2023-02-12T05:00:28;98167.69;;;2.52;100.00
19023;BME280;35226;48.606;8.858;2023-02-12T05:02:53;98171.22;;;2.52;100.00
19023;BME280;35226;48.606;8.858;2023-02-12T05:05:19;98177.00;;;2.51;100.00
19023;BME280;35226;48.606;8.858;2023-02-12T05:07:45;98173.94;;;2.52;100.00
19023;BME280;35226;48.606;8.858;2023-02-12T05:10:10;98165.28;;;2.50;100.00
19023;BME280;35226;48.606;8.858;2023-02-12T05:12:36;98166.09;;;2.51;100.00
19023;BME280;35226;48.606;8.858;2023-02-12T05:15:01;98170.53;;;2.43;100.00
19023;BME280;35226;48.606;8.858;2023-02-12T05:17:27;98165.97;;;2.47;100.00
19023;BME280;35226;48.606;8.858;2023-02-12T05:19:53;98167.56;;;2.48;100.00
19023;BME280;35226;48.606;8.858;2023-02-12T05:22:18;98177.34;;;2.49;100.00
19023;BME280;35226;48.606;8.858;2023-02-12T05:24:44;98174.94;;;2.48;100.00
19023;BME280;35226;48.606;8.858;2023-02-12T05:27:09;98174.94;;;2.48;100.00
19023;BME280;35226;48.606;8.858;2023-02-12T05:29:35;98176.00;;;2.43;100.00
19023;BME280;35226;48.606;8.858;2023-02-12T05:32:01;98168.38;;;2.37;100.00
19023;BME280;35226;48.606;8.858;2023-02-12T05:34:27;98177.03;;;2.39;100.00
19023;BME280;35226;48.606;8.858;2023-02-12T05:36:52;98170.88;;;2.42;100.00
19023;BME280;35226;48.606;8.858;2023-02-12T05:39:18;98176.00;;;2.43;100.00
19023;BME280;35226;48.606;8.858;2023-02-12T05:41:43;98182.34;;;2.47;100.00
19023;BME280;35226;48.606;8.858;2023-02-12T05:44:09;98175.28;;;2.46;100.00
19023;BME280;35226;48.606;8.858;2023-02-12T05:46:37;98178.41;;;2.45;100.00
19023;BME280;35226;48.606;8.858;2023-02-12T05:49:03;98174.06;;;2.44;100.00
19023;BME280;35226;48.606;8.858;2023-02-12T05:51:28;98164.63;;;2.41;100.00
19023;BME280;35226;48.606;8.858;2023-02-12T05:54:03;98175.53;;;2.41;100.00
19023;BME280;35226;48.606;8.858;2023-02-12T05:56:34;98178.28;;;2.41;100.00
19023;BME280;35226;48.606;8.858;2023-02-12T06:01:39;98177.03;;;2.39;100.00
19023;BME280;35226;48.606;8.858;2023-02-12T06:04:07;98169.19;;;2.37;100.00
19023;BME280;35226;48.606;8.858;2023-02-12T06:06:33;98169.19;;;2.37;100.00
19023;BME280;35226;48.606;8.858;2023-02-12T06:09:00;98161.00;;;2.37;100.00
19023;BME280;35226;48.606;8.858;2023-02-12T06:11:26;98163.25;;;2.35;100.00
19023;BME280;35226;48.606;8.858;2023-02-12T06:13:52;98172.69;;;2.38;100.00
19023;BME280;35226;48.606;8.858;2023-02-12T06:16:25;98176.56;;;2.37;100.00
19023;BME280;35226;48.606;8.858;2023-02-12T06:18:53;98172.25;;;2.36;100.00
19023;BME280;35226;48.606;8.858;2023-02-12T06:21:20;98176.22;;;2.38;100.00
19023;BME280;35226;48.606;8.858;2023-02-12T06:23:47;98174.75;;;2.41;100.00
19023;BME280;35226;48.606;8.858;2023-02-12T06:26:13;98177.59;;;2.44;100.00
19023;BME280;35226;48.606;8.858;2023-02-12T06:28:38;98174.41;;;2.42;100.00
19023;BME280;35226;48.606;8.858;2023-02-12T06:31:04;98172.94;;;2.45;100.00
19023;BME280;35226;48.606;8.858;2023-02-12T06:33:30;98185.78;;;2.44;100.00
19023;BME280;35226;48.606;8.858;2023-02-12T06:35:56;98180.00;;;2.34;100.00
19023;BME280;35226;48.606;8.858;2023-02-12T06:38:21;98184.88;;;2.28;100.00
19023;BME280;35226;48.606;8.858;2023-02-12T06:40:47;98176.16;;;2.22;100.00
19023;BME280;35226;48.606;8.858;2023-02-12T06:43:13;98183.19;;;2.23;100.00
19023;BME280;35226;48.606;8.858;2023-02-12T06:45:38;98180.47;;;2.23;100.00
19023;BME280;35226;48.606;8.858;2023-02-12T06:48:04;98183.28;;;2.27;100.00
19023;BME280;35226;48.606;8.858;2023-02-12T06:50:30;98183.41;;;2.31;100.00
19023;BME280;35226;48.606;8.858;2023-02-12T06:52:57;98181.81;;;2.30;100.00
19023;BME280;35226;48.606;8.858;2023-02-12T06:55:22;98186.94;;;2.31;100.00
19023;BME280;35226;48.606;8.858;2023-02-12T06:57:48;98191.25;;;2.32;100.00
19023;BME280;35226;48.606;8.858;2023-02-12T07:00:14;98197.16;;;2.34;100.00
19023;BME280;35226;48.606;8.858;2023-02-12T07:02:40;98194.06;;;2.36;100.00
19023;BME280;35226;48.606;8.858;2023-02-12T07:05:05;98199.53;;;2.36;100.00
19023;BME280;35226;48.606;8.858;2023-02-12T07:07:31;98201.13;;;2.37;100.00
19023;BME280;35226;48.606;8.858;2023-02-12T07:09:57;98202.03;;;2.41;100.00
19023;BME280;35226;48.606;8.858;2023-02-12T07:12:22;98198.97;;;2.42;100.00
19023;BME280;35226;48.606;8.858;2023-02-12T07:14:48;98202.50;;;2.43;100.00
19023;BME280;35226;48.606;8.858;2023-02-12T07:17:13;98201.34;;;2.44;100.00
19023;BME280;35226;48.606;8.858;2023-02-12T07:19:39;98199.84;;;2.46;100.00
19023;BME280;35226;48.606;8.858;2023-02-12T07:22:04;98202.69;;;2.50;100.00
19023;BME280;35226;48.606;8.858;2023-02-12T07:24:30;98202.00;;;2.53;100.00
19023;BME280;35226;48.606;8.858;2023-02-12T07:26:55;98202.44;;;2.55;100.00
19023;BME280;35226;48.606;8.858;2023-02-12T07:29:21;98201.41;;;2.59;100.00
19023;BME280;35226;48.606;8.858;2023-02-12T07:31:46;98203.91;;;2.65;100.00
19023;BME280;35226;48.606;8.858;2023-02-12T07:34:12;98210.25;;;2.69;100.00
19023;BME280;35226;48.606;8.858;2023-02-12T07:36:38;98212.78;;;2.74;100.00
19023;BME280;35226;48.606;8.858;2023-02-12T07:39:06;98208.88;;;2.75;100.00
19023;BME280;35226;48.606;8.858;2023-02-12T07:41:35;98213.53;;;2.74;100.00
19023;BME280;35226;48.606;8.858;2023-02-12T07:44:03;98212.78;;;2.74;100.00
19023;BME280;35226;48.606;8.858;2023-02-12T07:46:41;98205.34;;;2.74;100.00
19023;BME280;35226;48.606;8.858;2023-02-12T07:49:11;98217.06;;;2.75;100.00
19023;BME280;35226;48.606;8.858;2023-02-12T07:51:37;98199.31;;;2.81;100.00
19023;BME280;35226;48.606;8.858;2023-02-12T07:54:03;98210.13;;;2.77;100.00
19023;BME280;35226;48.606;8.858;2023-02-12T07:56:32;98210.03;;;2.74;100.00
19023;BME280;35226;48.606;8.858;2023-02-12T07:59:10;98207.06;;;2.67;100.00
19023;BME280;35226;48.606;8.858;2023-02-12T08:01:38;98218.34;;;2.65;100.00
19023;BME280;35226;48.606;8.858;2023-02-12T08:04:10;98218.59;;;2.60;100.00
19023;BME280;35226;48.606;8.858;2023-02-12T08:06:39;98218.13;;;2.58;100.00
19023;BME280;35226;48.606;8.858;2023-02-12T08:09:07;98221.19;;;2.56;100.00
19023;BME280;35226;48.606;8.858;2023-02-12T08:11:37;98217.34;;;2.57;100.00
19023;BME280;35226;48.606;8.858;2023-02-12T08:14:04;98213.81;;;2.57;100.00
19023;BME280;35226;48.606;8.858;2023-02-12T08:16:35;98217.66;;;2.56;100.00
19023;BME280;35226;48.606;8.858;2023-02-12T08:19:01;98224.38;;;2.58;100.00
19023;BME280;35226;48.606;8.858;2023-02-12T08:21:27;98218.34;;;2.65;100.00
19023;BME280;35226;48.606;8.858;2023-02-12T08:23:54;98224.81;;;2.73;100.00
19023;BME280;35226;48.606;8.858;2023-02-12T08:26:22;98226.16;;;2.79;100.00
19023;BME280;35226;48.606;8.858;2023-02-12T08:28:51;98219.75;;;2.87;100.00
19023;BME280;35226;48.606;8.858;2023-02-12T08:31:29;98215.66;;;2.93;100.00
19023;BME280;35226;48.606;8.858;2023-02-12T08:33:55;98222.00;;;2.97;100.00
19023;BME280;35226;48.606;8.858;2023-02-12T08:36:23;98215.19;;;3.03;100.00
19023;BME280;35226;48.606;8.858;2023-02-12T08:38:49;98224.81;;;3.13;100.00
19023;BME280;35226;48.606;8.858;2023-02-12T08:41:18;98217.16;;;3.18;100.00
19023;BME280;35226;48.606;8.858;2023-02-12T08:43:44;98217.00;;;3.27;100.00
19023;BME280;35226;48.606;8.858;2023-02-12T08:46:21;98218.44;;;3.37;100.00
19023;BME280;35226;48.606;8.858;2023-02-12T08:48:47;98211.31;;;3.48;100.00
19023;BME280;35226;48.606;8.858;2023-02-12T08:51:16;98222.78;;;3.53;100.00
19023;BME280;35226;48.606;8.858;2023-02-12T08:53:44;98216.72;;;3.60;100.00
19023;BME280;35226;48.606;8.858;2023-02-12T08:56:12;98216.88;;;3.67;100.00
19023;BME280;35226;48.606;8.858;2023-02-12T08:58:37;98221.31;;;3.71;100.00
19023;BME280;35226;48.606;8.858;2023-02-12T09:01:04;98210.91;;;3.77;100.00
19023;BME280;35226;48.606;8.858;2023-02-12T09:03:33;98213.75;;;3.81;100.00
19023;BME280;35226;48.606;8.858;2023-02-12T09:06:04;98205.25;;;3.86;100.00
19023;BME280;35226;48.606;8.858;2023-02-12T09:08:30;98205.34;;;3.89;100.00
19023;BME280;35226;48.606;8.858;2023-02-12T09:10:56;98203.94;;;3.95;100.00
19023;BME280;35226;48.606;8.858;2023-02-12T09:13:21;98199.44;;;4.19;100.00
19023;BME280;35226;48.606;8.858;2023-02-12T09:15:47;98200.22;;;4.19;100.00
19023;BME280;35226;48.606;8.858;2023-02-12T09:18:13;98201.38;;;4.18;100.00
19023;BME280;35226;48.606;8.858;2023-02-12T09:20:41;98205.75;;;4.23;100.00
19023;BME280;35226;48.606;8.858;2023-02-12T09:23:08;98198.69;;;4.22;100.00
19023;BME280;35226;48.606;8.858;2023-02-12T09:25:39;98196.41;;;4.24;100.00
19023;BME280;35226;48.606;8.858;2023-02-12T09:28:05;98195.72;;;4.27;100.00
19023;BME280;35226;48.606;8.858;2023-02-12T09:30:34;98194.81;;;4.38;100.00
19023;BME280;35226;48.606;8.858;2023-02-12T09:33:04;98195.66;;;4.42;100.00
19023;BME280;35226;48.606;8.858;2023-02-12T09:35:29;98196.63;;;4.50;100.00
19023;BME280;35226;48.606;8.858;2023-02-12T09:37:55;98202.13;;;4.50;100.00
19023;BME280;35226;48.606;8.858;2023-02-12T09:40:30;98202.97;;;4.54;100.00
19023;BME280;35226;48.606;8.858;2023-02-12T09:43:02;98195.63;;;4.58;100.00
19023;BME280;35226;48.606;8.858;2023-02-12T09:45:37;98203.50;;;4.60;100.00
19023;BME280;35226;48.606;8.858;2023-02-12T09:51:04;98191.22;;;4.54;100.00
19023;BME280;35226;48.606;8.858;2023-02-12T09:53:35;98202.31;;;4.61;100.00
19023;BME280;35226;48.606;8.858;2023-02-12T09:56:02;98202.66;;;4.75;100.00
19023;BME280;35226;48.606;8.858;2023-02-12T09:58:39;98198.91;;;4.83;100.00
19023;BME280;35226;48.606;8.858;2023-02-12T10:01:10;98199.69;;;4.83;100.00
19023;BME280;35226;48.606;8.858;2023-02-12T10:03:37;98194.56;;;4.82;100.00
19023;BME280;35226;48.606;8.858;2023-02-12T10:06:10;98197.41;;;4.86;100.00
19023;BME280;35226;48.606;8.858;2023-02-12T10:16:40;98188.38;;;4.85;100.00
19023;BME280;35226;48.606;8.858;2023-02-12T10:19:26;98187.00;;;5.14;100.00
19023;BME280;35226;48.606;8.858;2023-02-12T10:22:03;98183.03;;;5.11;100.00
19023;BME280;35226;48.606;8.858;2023-02-12T10:24:51;98189.84;;;5.17;100.00
19023;BME280;35226;48.606;8.858;2023-02-12T10:27:36;98190.84;;;5.29;100.00
19023;BME280;35226;48.606;8.858;2023-02-12T10:30:07;98188.28;;;5.20;100.00
19023;BME280;35226;48.606;8.858;2023-02-12T10:32:38;98180.47;;;5.18;100.00
19023;BME280;35226;48.606;8.858;2023-02-12T10:35:12;98179.13;;;5.32;100.00
19023;BME280;35226;48.606;8.858;2023-02-12T10:37:42;98179.44;;;5.49;100.00
19023;BME280;35226;48.606;8.858;2023-02-12T10:40:23;98176.16;;;5.40;100.00
19023;BME280;35226;48.606;8.858;2023-02-12T10:42:52;98171.66;;;5.29;100.00
19023;BME280;35226;48.606;8.858;2023-02-12T10:45:20;98183.81;;;5.31;100.00
19023;BME280;35226;48.606;8.858;2023-02-12T10:47:50;98173.00;;;5.38;100.00
19023;BME280;35226;48.606;8.858;2023-02-12T10:53:00;98166.06;;;5.44;100.00
19023;BME280;35226;48.606;8.858;2023-02-12T10:55:33;98164.31;;;5.55;100.00
19023;BME280;35226;48.606;8.858;2023-02-12T10:58:01;98169.47;;;5.61;100.00
19023;BME280;35226;48.606;8.858;2023-02-12T11:00:35;98162.84;;;5.62;100.00
19023;BME280;35226;48.606;8.858;2023-02-12T11:05:38;98154.31;;;5.67;100.00
19023;BME280;35226;48.606;8.858;2023-02-12T11:08:05;98162.66;;;5.74;100.00
19023;BME280;35226;48.606;8.858;2023-02-12T11:10:40;98161.19;;;5.80;100.00
19023;BME280;35226;48.606;8.858;2023-02-12T11:13:24;98162.84;;;5.84;100.00
19023;BME280;35226;48.606;8.858;2023-02-12T11:15:50;98161.47;;;5.94;100.00
19023;BME280;35226;48.606;8.858;2023-02-12T11:18:28;98151.56;;;5.89;100.00
19023;BME280;35226;48.606;8.858;2023-02-12T11:21:10;98149.00;;;6.00;100.00
19023;BME280;35226;48.606;8.858;2023-02-12T11:23:42;98142.44;;;6.05;100.00
19023;BME280;35226;48.606;8.858;2023-02-12T11:29:16;98139.06;;;6.15;100.00
19023;BME280;35226;48.606;8.858;2023-02-12T11:31:59;98139.34;;;6.10;100.00
19023;BME280;35226;48.606;8.858;2023-02-12T11:34:24;98139.88;;;6.19;100.00
19023;BME280;35226;48.606;8.858;2023-02-12T11:36:53;98133.75;;;6.29;100.00
19023;BME280;35226;48.606;8.858;2023-02-12T11:41:49;98137.44;;;6.40;100.00
19023;BME280;35226;48.606;8.858;2023-02-12T11:44:18;98134.28;;;6.38;100.00
19023;BME280;35226;48.606;8.858;2023-02-12T11:47:05;98137.53;;;6.47;100.00
19023;BME280;35226;48.606;8.858;2023-02-12T11:49:37;98135.72;;;6.58;100.00
19023;BME280;35226;48.606;8.858;2023-02-12T11:52:04;98144.66;;;6.52;100.00
19023;BME280;35226;48.606;8.858;2023-02-12T11:54:39;98135.31;;;6.56;100.00
19023;BME280;35226;48.606;8.858;2023-02-12T11:57:06;98139.13;;;6.78;100.00
19023;BME280;35226;48.606;8.858;2023-02-12T11:59:39;98136.34;;;6.75;100.00
19023;BME280;35226;48.606;8.858;2023-02-12T12:02:23;98137.22;;;6.82;100.00
19023;BME280;35226;48.606;8.858;2023-02-12T12:04:54;98136.72;;;6.73;100.00
19023;BME280;35226;48.606;8.858;2023-02-12T12:07:32;98130.88;;;6.78;100.00
19023;BME280;35226;48.606;8.858;2023-02-12T12:10:06;98132.97;;;6.88;100.00
19023;BME280;35226;48.606;8.858;2023-02-12T12:18:05;98120.63;;;7.05;100.00
19023;BME280;35226;48.606;8.858;2023-02-12T12:21:12;98119.09;;;7.11;100.00
19023;BME280;35226;48.606;8.858;2023-02-12T12:23:45;98116.81;;;7.17;100.00
19023;BME280;35226;48.606;8.858;2023-02-12T12:26:23;98115.94;;;7.09;100.00
19023;BME280;35226;48.606;8.858;2023-02-12T12:28:56;98115.25;;;7.19;100.00
19023;BME280;35226;48.606;8.858;2023-02-12T12:34:01;98119.25;;;7.25;100.00
19023;BME280;35226;48.606;8.858;2023-02-12T13:22:58;98087.78;;;8.87;100.00
19023;BME280;35226;48.606;8.858;2023-02-12T13:28:36;98088.06;;;8.61;100.00
19023;BME280;35226;48.606;8.858;2023-02-12T13:31:13;98093.25;;;8.80;100.00
19023;BME280;35226;48.606;8.858;2023-02-12T13:33:50;98075.50;;;8.67;100.00
19023;BME280;35226;48.606;8.858;2023-02-12T13:36:20;98078.66;;;8.76;100.00
19023;BME280;35226;48.606;8.858;2023-02-12T13:41:30;98072.41;;;8.86;100.00
19023;BME280;35226;48.606;8.858;2023-02-12T13:47:01;98070.88;;;8.99;100.00
19023;BME280;35226;48.606;8.858;2023-02-12T13:49:58;98073.13;;;8.69;100.00
19023;BME280;35226;48.606;8.858;2023-02-12T13:55:51;98069.63;;;8.79;100.00
19023;BME280;35226;48.606;8.858;2023-02-12T14:03:30;98068.25;;;8.34;100.00
19023;BME280;35226;48.606;8.858;2023-02-12T14:06:23;98064.13;;;8.03;100.00
19023;BME280;35226;48.606;8.858;2023-02-12T14:08:52;98063.00;;;8.11;100.00
19023;BME280;35226;48.606;8.858;2023-02-12T14:11:23;98057.78;;;7.99;100.00
19023;BME280;35226;48.606;8.858;2023-02-12T14:13:59;98062.94;;;8.07;100.00
19023;BME280;35226;48.606;8.858;2023-02-12T14:21:58;98047.81;;;7.76;100.00
19023;BME280;35226;48.606;8.858;2023-02-12T14:27:05;98040.34;;;7.73;100.00
19023;BME280;35226;48.606;8.858;2023-02-12T14:37:51;98035.19;;;7.68;100.00
19023;BME280;35226;48.606;8.858;2023-02-12T14:40:37;98026.91;;;7.68;100.00
19023;BME280;35226;48.606;8.858;2023-02-12T14:49:02;98014.63;;;7.52;100.00
19023;BME280;35226;48.606;8.858;2023-02-12T14:54:25;98019.75;;;7.53;100.00
19023;BME280;35226;48.606;8.858;2023-02-12T14:56:52;98027.13;;;7.46;100.00
19023;BME280;35226;48.606;8.858;2023-02-12T14:59:23;98028.28;;;7.41;100.00
19023;BME280;35226;48.606;8.858;2023-02-12T15:01:51;98024.66;;;7.30;100.00
19023;BME280;35226;48.606;8.858;2023-02-12T15:04:27;98032.91;;;7.30;100.00
19023;BME280;35226;48.606;8.858;2023-02-12T15:10:00;98032.09;;;7.29;100.00
19023;BME280;35226;48.606;8.858;2023-02-12T15:12:24;98037.19;;;7.27;100.00
19023;BME280;35226;48.606;8.858;2023-02-12T15:15:05;98037.88;;;7.17;100.00
19023;BME280;35226;48.606;8.858;2023-02-12T15:17:39;98035.13;;;7.14;100.00
19023;BME280;35226;48.606;8.858;2023-02-12T15:20:29;98037.09;;;7.17;100.00
19023;BME280;35226;48.606;8.858;2023-02-12T15:22:57;98026.88;;;7.14;100.00
19023;BME280;35226;48.606;8.858;2023-02-12T15:25:31;98027.66;;;7.14;100.00
19023;BME280;35226;48.606;8.858;2023-02-12T15:28:03;98025.72;;;7.18;100.00
19023;BME280;35226;48.606;8.858;2023-02-12T15:30:34;98022.53;;;7.13;100.00
19023;BME280;35226;48.606;8.858;2023-02-12T15:33:03;98022.50;;;7.09;100.00
19023;BME280;35226;48.606;8.858;2023-02-12T15:35:32;98023.66;;;7.04;100.00
19023;BME280;35226;48.606;8.858;2023-02-12T15:37:59;98023.59;;;7.01;100.00
19023;BME280;35226;48.606;8.858;2023-02-12T15:40:26;98018.47;;;6.99;100.00
19023;BME280;35226;48.606;8.858;2023-02-12T15:43:03;98020.44;;;6.99;100.00
19023;BME280;35226;48.606;8.858;2023-02-12T15:45:31;98016.09;;;6.98;100.00
19023;BME280;35226;48.606;8.858;2023-02-12T15:48:15;98031.78;;;6.94;100.00
19023;BME280;35226;48.606;8.858;2023-02-12T15:50:50;98016.47;;;6.93;100.00
19023;BME280;35226;48.606;8.858;2023-02-12T15:53:17;98026.59;;;6.85;100.00
19023;BME280;35226;48.606;8.858;2023-02-12T15:55:45;98031.66;;;6.83;100.00
19023;BME280;35226;48.606;8.858;2023-02-12T16:00:45;98033.56;;;6.76;100.00
19023;BME280;35226;48.606;8.858;2023-02-12T16:05:49;98025.94;;;6.62;100.00